Time;durP1;ratioP1;P1;durP2;ratioP2;P2;SDS_P1;SDS_P2;PMS_P1;PMS_P2;Temp;Humidity;BMP_temperature;BMP_pressure;BME280_temperature;BME280_humidity;BME280_pressure;Samples;Min_cycle;Max_cycle;Signal;HPM_P1;HPM_P2
2023/01/19 00:00:14;;;;;;;15.52;7.72;;;;;;;4.81;53.05;99918.69;4932169;28;99896;-68
2023/01/19 00:02:46;;;;;;;17.70;7.75;;;;;;;4.70;52.97;99923.34;4928113;28;98836;-67
2023/01/19 00:05:12;;;;;;;15.18;7.13;;;;;;;4.72;53.05;99918.94;4933408;28;98720;-69
2023/01/19 00:07:39;;;;;;;16.83;7.55;;;;;;;4.75;52.98;99926.69;4938463;28;96713;-68
2023/01/19 00:10:07;;;;;;;16.83;7.75;;;;;;;4.64;53.08;99932.19;4933909;28;98891;-67
2023/01/19 00:12:34;;;;;;;13.48;7.30;;;;;;;4.52;53.08;99932.50;4930337;28;98868;-69
2023/01/19 00:15:01;;;;;;;15.93;7.55;;;;;;;4.54;53.68;99935.06;4927640;28;96725;-67
2023/01/19 00:17:28;;;;;;;16.70;7.45;;;;;;;4.72;52.96;99935.50;4930584;28;97257;-69
2023/01/19 00:19:54;;;;;;;15.75;7.28;;;;;;;4.70;53.25;99946.88;4937548;28;99240;-69
2023/01/19 00:22:21;;;;;;;14.35;7.32;;;;;;;4.90;52.27;99942.03;4924851;28;97654;-69
2023/01/19 00:24:47;;;;;;;14.05;7.55;;;;;;;4.80;52.93;99945.75;4927926;28;96800;-70
2023/01/19 00:27:13;;;;;;;19.95;7.88;;;;;;;4.80;52.57;99937.91;4920011;28;98900;-68
2023/01/19 00:29:40;;;;;;;18.20;7.78;;;;;;;4.65;52.65;99957.47;4933494;28;99481;-68
2023/01/19 00:32:08;;;;;;;17.33;7.53;;;;;;;4.65;52.80;99949.63;4931825;28;99171;-68
2023/01/19 00:34:38;;;;;;;15.77;7.18;;;;;;;4.63;52.60;99951.41;4930998;28;97696;-68
2023/01/19 00:37:05;;;;;;;16.45;8.15;;;;;;;4.44;53.63;99954.50;4925445;28;97291;-68
2023/01/19 00:39:31;;;;;;;15.05;7.85;;;;;;;4.59;53.49;99962.00;4936815;28;99514;-69
2023/01/19 00:44:42;;;;;;;16.38;8.00;;;;;;;4.55;53.29;99973.41;4934975;28;97796;-68
2023/01/19 00:47:09;;;;;;;14.77;8.57;;;;;;;4.38;53.97;99974.66;4938356;28;96920;-67
2023/01/19 00:49:38;;;;;;;17.55;8.52;;;;;;;4.52;53.44;99971.75;4940634;28;100978;-69
2023/01/19 00:52:05;;;;;;;16.20;7.78;;;;;;;4.52;52.83;99969.13;4936512;28;98912;-69
2023/01/19 00:54:31;;;;;;;19.67;7.65;;;;;;;4.32;52.73;99966.97;4933427;28;97528;-69
2023/01/19 00:56:58;;;;;;;19.70;8.23;;;;;;;4.46;52.61;99968.41;4933806;28;97334;-69
2023/01/19 00:59:25;;;;;;;18.98;8.07;;;;;;;4.44;52.74;99962.34;4930745;28;99395;-69
2023/01/19 01:01:51;;;;;;;16.10;7.68;;;;;;;4.44;52.74;99975.41;4930682;28;98949;-68
2023/01/19 01:04:19;;;;;;;20.27;7.85;;;;;;;4.55;52.54;99976.88;4935520;28;96906;-69
2023/01/19 01:06:46;;;;;;;25.95;8.02;;;;;;;4.33;52.85;99970.44;4938751;28;97195;-68
2023/01/19 01:09:13;;;;;;;18.33;8.52;;;;;;;4.40;52.96;99978.09;4933504;28;99473;-68
2023/01/19 01:11:39;;;;;;;16.67;7.47;;;;;;;4.31;53.38;99978.31;4935891;28;99590;-69
2023/01/19 01:14:06;;;;;;;22.05;8.90;;;;;;;4.27;53.56;99976.66;4928087;28;98213;-68
2023/01/19 01:16:32;;;;;;;19.42;8.88;;;;;;;4.41;53.07;99974.59;4934936;28;96860;-68
2023/01/19 01:18:59;;;;;;;16.33;8.52;;;;;;;4.26;53.07;99974.09;4935251;28;99199;-68
2023/01/19 01:21:27;;;;;;;17.55;8.77;;;;;;;4.27;53.20;99975.78;4934450;28;101651;-67
2023/01/19 01:23:54;;;;;;;19.13;8.10;;;;;;;4.19;53.12;99985.56;4940553;28;98018;-68
2023/01/19 01:26:20;;;;;;;16.92;9.07;;;;;;;4.30;52.78;99976.59;4936664;28;97295;-68
2023/01/19 01:28:47;;;;;;;19.63;8.73;;;;;;;4.29;52.82;99980.09;4931526;28;100620;-68
2023/01/19 01:31:14;;;;;;;18.75;9.02;;;;;;;4.28;52.98;99988.84;4934455;28;99261;-68
2023/01/19 01:33:40;;;;;;;19.63;8.95;;;;;;;4.28;52.54;99983.59;4930375;28;98619;-69
2023/01/19 01:36:07;;;;;;;18.05;8.93;;;;;;;4.29;52.75;99990.56;4933101;28;96786;-68
2023/01/19 01:38:35;;;;;;;17.73;7.80;;;;;;;4.49;52.34;99986.63;4933354;28;99026;-68
2023/01/19 01:41:02;;;;;;;23.15;9.60;;;;;;;4.53;52.57;99993.53;4928467;28;99535;-68
2023/01/19 01:43:42;;;;;;;21.88;9.02;;;;;;;4.31;52.26;99986.16;4934122;28;97697;-70
2023/01/19 01:46:08;;;;;;;19.17;9.20;;;;;;;4.55;52.54;99991.72;4940698;28;97151;-69
2023/01/19 01:48:36;;;;;;;17.42;8.65;;;;;;;4.28;53.20;99987.97;4935816;28;98942;-67
2023/01/19 01:51:26;;;;;;;19.90;8.15;;;;;;;4.64;52.15;99991.53;4932982;28;99041;-69
2023/01/19 01:54:08;;;;;;;18.60;8.65;;;;;;;4.66;52.17;99994.97;4928177;28;98514;-68
2023/01/19 01:56:37;;;;;;;17.60;9.55;;;;;;;4.40;52.85;99993.78;4927559;28;96767;-67
2023/01/19 01:59:07;;;;;;;17.63;8.73;;;;;;;4.35;52.88;99986.94;4930454;28;98978;-68
2023/01/19 02:04:18;;;;;;;21.70;9.65;;;;;;;4.10;53.75;99989.22;4934696;28;96814;-68
2023/01/19 02:15:01;;;;;;;18.58;9.90;;;;;;;3.94;54.22;99995.66;4936144;28;96855;-70
2023/01/19 02:17:28;;;;;;;23.55;10.10;;;;;;;4.10;53.60;99997.06;4937710;28;96779;-68
2023/01/19 02:19:55;;;;;;;22.75;9.98;;;;;;;4.16;53.47;99983.88;4932580;28;99472;-70
2023/01/19 02:22:28;;;;;;;21.52;9.45;;;;;;;3.96;54.06;99991.28;4929973;28;99182;-69
2023/01/19 02:24:56;;;;;;;22.90;9.75;;;;;;;3.97;53.93;99990.38;4936115;28;97914;-69
2023/01/19 02:27:22;;;;;;;23.35;9.65;;;;;;;4.08;53.88;99992.75;4927350;28;98262;-69
2023/01/19 02:29:49;;;;;;;21.77;9.13;;;;;;;3.89;53.73;99987.91;4931684;28;101713;-69
2023/01/19 02:32:15;;;;;;;21.85;9.35;;;;;;;4.04;53.33;99991.97;4933172;28;99432;-69
2023/01/19 02:34:42;;;;;;;19.25;9.18;;;;;;;3.66;54.46;99991.91;4932913;28;97117;-69
2023/01/19 02:37:11;;;;;;;30.70;10.98;;;;;;;3.77;54.16;99985.56;4927817;28;97067;-69
2023/01/19 02:39:43;;;;;;;22.58;9.35;;;;;;;3.66;54.60;99987.53;4925879;28;101287;-68
2023/01/19 02:42:17;;;;;;;22.30;9.60;;;;;;;3.69;54.53;99981.38;4927260;28;101812;-69
2023/01/19 02:44:48;;;;;;;22.92;9.63;;;;;;;3.59;54.71;99984.19;4929890;28;97026;-70
2023/01/19 02:47:15;;;;;;;23.60;9.82;;;;;;;3.60;54.92;99985.03;4932907;28;96961;-70
2023/01/19 02:49:42;;;;;;;20.08;9.98;;;;;;;3.42;55.10;99978.38;4935536;28;98918;-70
2023/01/19 02:52:15;;;;;;;22.05;9.38;;;;;;;3.54;54.36;99972.09;4935590;28;99224;-70
2023/01/19 02:54:52;;;;;;;20.90;9.82;;;;;;;3.61;54.65;99971.06;4934506;28;98460;-69
2023/01/19 02:57:35;;;;;;;20.85;9.82;;;;;;;3.44;55.13;99976.63;4929404;28;96964;-70
2023/01/19 03:00:28;;;;;;;22.15;9.27;;;;;;;3.63;54.93;99984.09;4922118;28;98966;-69
2023/01/19 03:03:11;;;;;;;22.27;9.25;;;;;;;3.54;54.28;99985.16;4933446;28;99240;-69
2023/01/19 03:05:53;;;;;;;21.77;9.32;;;;;;;3.63;54.47;99986.72;4924134;28;96855;-69
2023/01/19 03:08:30;;;;;;;17.65;9.40;;;;;;;3.66;54.18;99984.06;4929030;28;97511;-69
2023/01/19 03:11:02;;;;;;;18.60;9.50;;;;;;;3.58;54.29;99985.06;4926062;28;99387;-70
2023/01/19 03:13:38;;;;;;;24.35;9.75;;;;;;;3.54;54.62;99988.59;4931837;28;98829;-70
2023/01/19 03:16:10;;;;;;;19.23;9.77;;;;;;;3.55;53.82;99979.03;4932256;28;97318;-69
2023/01/19 03:18:41;;;;;;;21.88;9.18;;;;;;;3.55;54.02;99974.66;4928860;28;97514;-69
2023/01/19 03:21:10;;;;;;;20.80;9.88;;;;;;;3.45;54.81;99973.13;4932671;28;99368;-68
2023/01/19 03:23:40;;;;;;;21.40;10.15;;;;;;;3.50;54.28;99981.72;4926524;28;98807;-69
2023/01/19 03:26:10;;;;;;;20.38;9.85;;;;;;;3.53;54.10;99980.81;4936991;28;96827;-70
2023/01/19 03:28:39;;;;;;;24.00;10.38;;;;;;;3.58;54.29;99989.44;4923942;28;96956;-69
2023/01/19 03:31:13;;;;;;;19.65;9.43;;;;;;;3.50;54.33;99986.09;4931500;28;99203;-70
2023/01/19 03:33:43;;;;;;;20.95;10.80;;;;;;;3.56;54.03;99993.81;4932871;28;98761;-68
2023/01/19 03:36:15;;;;;;;20.88;9.95;;;;;;;3.51;54.62;99987.81;4933184;28;97451;-69
2023/01/19 03:38:43;;;;;;;23.77;11.55;;;;;;;3.44;54.45;99991.44;4929984;28;97717;-68
2023/01/19 03:41:15;;;;;;;22.92;11.55;;;;;;;3.53;54.07;99986.91;4935972;28;99158;-67
2023/01/19 03:43:46;;;;;;;22.88;11.35;;;;;;;3.43;54.34;99992.31;4933404;28;98362;-68
2023/01/19 03:46:16;;;;;;;19.52;10.48;;;;;;;3.50;54.27;99988.69;4929393;28;96840;-68
2023/01/19 03:48:42;;;;;;;21.60;10.65;;;;;;;3.47;54.32;99997.47;4928201;28;97707;-68
2023/01/19 03:51:10;;;;;;;22.83;11.02;;;;;;;3.52;54.46;99990.41;4927915;28;100812;-68
2023/01/19 03:53:37;;;;;;;21.90;11.65;;;;;;;3.31;54.66;99998.63;4928297;28;99708;-69
2023/01/19 03:56:04;;;;;;;24.25;12.30;;;;;;;3.39;54.40;99998.50;4930941;28;96747;-68
2023/01/19 03:58:31;;;;;;;24.17;11.63;;;;;;;3.27;54.65;100003.94;4937183;28;96985;-69
2023/01/19 04:00:58;;;;;;;25.15;11.23;;;;;;;3.55;54.07;100003.38;4930800;28;99842;-69
2023/01/19 04:03:25;;;;;;;22.98;11.20;;;;;;;3.32;54.54;99997.75;4931329;28;97732;-68
2023/01/19 04:05:51;;;;;;;21.88;11.25;;;;;;;3.42;54.53;100004.50;4923849;28;98765;-69
2023/01/19 04:08:18;;;;;;;23.45;11.65;;;;;;;3.29;54.79;99994.31;4936085;28;97082;-68
2023/01/19 04:10:44;;;;;;;26.25;11.82;;;;;;;3.20;55.32;100003.19;4936588;28;99359;-68
2023/01/19 04:13:11;;;;;;;24.27;12.05;;;;;;;3.18;55.08;100002.34;4928886;28;96875;-68
2023/01/19 04:15:37;;;;;;;28.20;11.73;;;;;;;3.18;55.35;100002.34;4931419;28;96839;-67
2023/01/19 04:18:05;;;;;;;23.05;11.40;;;;;;;3.07;55.34;99999.06;4928946;28;97220;-70
2023/01/19 04:20:32;;;;;;;23.80;12.25;;;;;;;2.95;55.71;100002.75;4925901;28;100755;-68
2023/01/19 04:23:00;;;;;;;30.67;12.98;;;;;;;3.06;55.44;100003.41;4933333;28;98925;-68
2023/01/19 04:25:27;;;;;;;22.88;12.43;;;;;;;3.14;55.38;100003.28;4932186;28;97578;-67
2023/01/19 04:27:54;;;;;;;26.27;12.75;;;;;;;3.00;55.36;100006.13;4935518;28;98502;-67
2023/01/19 04:30:21;;;;;;;23.92;12.00;;;;;;;2.80;56.01;100003.84;4942609;28;99037;-67
2023/01/19 04:32:47;;;;;;;24.77;13.15;;;;;;;2.83;55.88;100007.28;4941506;28;98765;-68
2023/01/19 04:35:15;;;;;;;26.23;12.27;;;;;;;2.96;55.81;100008.78;4931825;28;97171;-68
2023/01/19 04:37:43;;;;;;;24.48;12.88;;;;;;;2.63;56.30;100002.34;4938359;28;97204;-68
2023/01/19 04:40:11;;;;;;;26.35;11.82;;;;;;;2.99;55.24;100003.53;4932558;28;98218;-67
2023/01/19 04:42:37;;;;;;;22.52;12.13;;;;;;;2.76;55.51;100009.13;4935297;28;99262;-68
2023/01/19 04:45:04;;;;;;;25.20;11.95;;;;;;;2.88;55.81;100008.09;4938548;28;98509;-68
2023/01/19 04:47:31;;;;;;;36.40;14.77;;;;;;;2.67;56.09;100012.75;4933606;28;97300;-67
2023/01/19 04:49:57;;;;;;;35.28;12.65;;;;;;;2.54;56.41;100013.81;4936798;28;98824;-70
2023/01/19 04:52:25;;;;;;;23.23;11.57;;;;;;;2.74;56.00;100013.50;4932032;28;99200;-69
2023/01/19 04:54:51;;;;;;;24.40;12.98;;;;;;;2.68;55.64;100009.25;4935617;28;96775;-69
2023/01/19 04:57:18;;;;;;;27.13;12.27;;;;;;;2.62;56.26;100013.72;4942054;28;96732;-69
2023/01/19 04:59:44;;;;;;;23.75;11.27;;;;;;;2.63;56.02;100016.25;4935303;28;99044;-69
2023/01/19 05:02:11;;;;;;;25.95;12.20;;;;;;;2.84;55.88;100022.91;4928967;28;102099;-68
2023/01/19 05:04:38;;;;;;;29.48;11.88;;;;;;;3.00;55.27;100011.34;4923235;28;98359;-69
2023/01/19 05:07:04;;;;;;;24.20;12.23;;;;;;;2.68;55.62;100016.22;4930385;28;96863;-69
2023/01/19 05:09:32;;;;;;;26.80;12.35;;;;;;;2.76;55.33;100012.59;4928819;28;99062;-69
2023/01/19 05:11:58;;;;;;;22.67;11.60;;;;;;;2.94;55.13;100008.84;4930800;28;98801;-69
2023/01/19 05:14:24;;;;;;;25.83;12.18;;;;;;;2.82;55.01;100013.41;4930344;28;97389;-68
2023/01/19 05:16:51;;;;;;;20.30;11.45;;;;;;;2.74;55.37;100011.78;4936104;28;97112;-68
2023/01/19 05:19:20;;;;;;;25.45;12.35;;;;;;;2.60;55.70;100011.13;4930938;28;99386;-68
2023/01/19 05:21:46;;;;;;;21.55;12.00;;;;;;;2.85;55.01;100021.16;4940010;28;96788;-70
2023/01/19 05:24:13;;;;;;;23.88;12.00;;;;;;;2.57;55.54;100016.34;4931272;28;97104;-68
2023/01/19 05:26:41;;;;;;;27.10;11.95;;;;;;;2.67;55.54;100023.19;4933069;28;96829;-69
2023/01/19 05:29:08;;;;;;;23.08;12.00;;;;;;;2.68;55.10;100019.69;4944182;28;97659;-69
2023/01/19 05:31:35;;;;;;;21.02;12.32;;;;;;;2.85;54.93;100018.56;4935410;28;99350;-68
2023/01/19 05:34:02;;;;;;;26.38;12.38;;;;;;;2.61;55.00;100020.66;4934277;28;97225;-67
2023/01/19 05:36:29;;;;;;;23.63;12.13;;;;;;;2.59;55.26;100021.56;4935412;28;97084;-72
2023/01/19 05:38:55;;;;;;;25.35;12.07;;;;;;;2.51;55.42;100029.50;4929247;28;99310;-69
2023/01/19 05:41:21;;;;;;;23.25;12.30;;;;;;;2.79;55.33;100029.94;4932225;28;98898;-69
2023/01/19 05:43:49;;;;;;;22.83;11.77;;;;;;;2.58;55.58;100023.31;4930030;28;96869;-70
2023/01/19 05:46:16;;;;;;;23.70;11.65;;;;;;;2.63;54.98;100026.69;4938168;28;97016;-70
2023/01/19 05:48:42;;;;;;;19.02;10.82;;;;;;;2.67;54.96;100027.53;4936936;28;99253;-68
2023/01/19 05:51:09;;;;;;;20.90;11.48;;;;;;;2.56;55.30;100045.94;4933783;28;98861;-69
2023/01/19 05:53:35;;;;;;;21.63;11.48;;;;;;;2.48;55.30;100047.81;4933689;28;96690;-70
2023/01/19 05:56:02;;;;;;;25.35;12.13;;;;;;;2.59;54.92;100052.84;4935048;28;97094;-69
2023/01/19 05:58:29;;;;;;;20.63;11.48;;;;;;;2.68;55.26;100055.34;4941392;28;99149;-68
2023/01/19 06:00:57;;;;;;;22.98;11.98;;;;;;;2.67;54.99;100056.22;4934702;28;99188;-69
2023/01/19 06:03:23;;;;;;;23.48;11.10;;;;;;;2.60;55.11;100062.41;4938790;28;97533;-69
2023/01/19 06:05:50;;;;;;;24.17;11.68;;;;;;;2.46;55.59;100064.34;4933621;28;97419;-68
2023/01/19 06:08:17;;;;;;;22.80;12.18;;;;;;;2.66;55.01;100073.63;4938678;28;99310;-69
2023/01/19 06:10:43;;;;;;;25.50;11.82;;;;;;;2.42;55.59;100075.72;4933849;28;99296;-69
2023/01/19 06:13:10;;;;;;;25.70;12.05;;;;;;;2.42;55.38;100073.09;4937090;28;97180;-69
2023/01/19 06:15:37;;;;;;;26.92;11.18;;;;;;;2.57;54.97;100068.53;4929489;28;98684;-69
2023/01/19 06:18:05;;;;;;;21.10;11.05;;;;;;;2.44;55.62;100066.97;4934652;28;98299;-68
2023/01/19 06:20:31;;;;;;;24.33;11.50;;;;;;;2.37;55.20;100075.75;4934179;28;99022;-69
2023/01/19 06:22:58;;;;;;;28.77;11.27;;;;;;;2.14;56.05;100068.22;4923651;28;98938;-69
2023/01/19 06:25:25;;;;;;;27.20;11.18;;;;;;;2.26;55.70;100068.06;4933685;28;97279;-69
2023/01/19 06:27:54;;;;;;;24.38;12.13;;;;;;;2.33;55.70;100074.06;4930824;28;99397;-69
2023/01/19 06:30:20;;;;;;;21.70;11.40;;;;;;;2.43;55.25;100070.44;4930561;28;97617;-69
2023/01/19 06:32:47;;;;;;;21.42;11.05;;;;;;;2.59;55.07;100078.94;4934352;28;96784;-69
2023/01/19 06:35:15;;;;;;;24.58;11.45;;;;;;;2.37;55.14;100070.53;4925023;28;97076;-68
2023/01/19 06:37:41;;;;;;;25.50;11.50;;;;;;;2.39;55.02;100066.16;4934520;28;99373;-70
2023/01/19 06:40:10;;;;;;;20.30;10.23;;;;;;;2.02;56.19;100072.72;4926239;28;98823;-70
2023/01/19 06:42:37;;;;;;;19.40;10.50;;;;;;;2.05;56.12;100070.06;4937757;28;97187;-70
2023/01/19 06:45:03;;;;;;;22.20;10.95;;;;;;;2.18;55.85;100071.66;4930955;28;97494;-69
2023/01/19 06:47:30;;;;;;;18.73;10.57;;;;;;;2.21;55.81;100077.69;4938998;28;99007;-72
2023/01/19 06:49:57;;;;;;;23.80;9.93;;;;;;;2.28;55.33;100073.28;4938106;28;98881;-70
2023/01/19 06:52:25;;;;;;;22.15;10.85;;;;;;;2.25;55.33;100075.91;4928635;28;99478;-69
2023/01/19 06:54:51;;;;;;;23.52;10.82;;;;;;;2.31;55.21;100070.63;4938027;28;98911;-69
2023/01/19 06:57:17;;;;;;;20.73;10.57;;;;;;;2.57;54.58;100080.69;4939094;28;99160;-70
2023/01/19 06:59:44;;;;;;;22.42;10.45;;;;;;;2.48;54.50;100078.22;4934473;28;98837;-68
2023/01/19 07:02:13;;;;;;;23.55;10.82;;;;;;;2.66;54.41;100080.59;4935326;28;96929;-68
2023/01/19 07:04:39;;;;;;;21.75;10.60;;;;;;;2.67;54.10;100075.34;4930269;28;99207;-68
2023/01/19 07:07:05;;;;;;;23.52;11.75;;;;;;;2.53;54.46;100082.50;4928295;28;101036;-68
2023/01/19 07:09:36;;;;;;;19.77;10.48;;;;;;;2.70;53.71;100080.50;4927775;28;98917;-68
2023/01/19 07:12:03;;;;;;;22.67;10.40;;;;;;;2.79;54.08;100084.75;4935283;28;96853;-69
2023/01/19 07:14:32;;;;;;;22.42;10.95;;;;;;;2.73;53.99;100084.84;4932576;28;97523;-69
2023/01/19 07:17:00;;;;;;;24.70;11.27;;;;;;;2.71;53.73;100090.06;4923849;28;100083;-68
2023/01/19 07:19:27;;;;;;;22.73;10.27;;;;;;;2.42;54.58;100084.41;4934068;28;98160;-68
2023/01/19 07:21:53;;;;;;;21.73;9.90;;;;;;;2.55;54.20;100093.78;4936472;28;96760;-68
2023/01/19 07:24:20;;;;;;;25.38;10.65;;;;;;;2.52;54.49;100086.00;4934308;28;97327;-67
2023/01/19 07:26:48;;;;;;;21.80;11.27;;;;;;;2.50;54.08;100086.88;4931701;28;98921;-67
2023/01/19 07:29:15;;;;;;;24.25;10.80;;;;;;;2.91;53.60;100086.31;4931216;28;99169;-67
2023/01/19 07:31:41;;;;;;;20.95;11.10;;;;;;;2.70;53.91;100097.91;4934819;28;99256;-68
2023/01/19 07:34:07;;;;;;;21.60;10.48;;;;;;;2.90;53.61;100118.50;4931600;28;97254;-69
2023/01/19 07:36:34;;;;;;;23.25;10.00;;;;;;;2.66;53.88;100114.50;4932632;28;101393;-67
2023/01/19 07:39:01;;;;;;;23.38;10.85;;;;;;;3.02;53.04;100107.91;4928391;28;97590;-69
2023/01/19 07:41:27;;;;;;;26.40;11.23;;;;;;;2.93;53.13;100102.81;4933869;28;96734;-69
2023/01/19 07:43:55;;;;;;;23.23;10.18;;;;;;;2.99;53.29;100110.53;4930786;28;97029;-69
2023/01/19 07:46:21;;;;;;;21.90;10.48;;;;;;;2.86;53.22;100111.63;4936579;28;98830;-67
2023/01/19 07:48:48;;;;;;;20.52;9.52;;;;;;;3.01;52.57;100112.25;4925792;28;98847;-67
2023/01/19 07:51:17;;;;;;;25.35;10.40;;;;;;;2.87;53.07;100113.34;4929171;28;96786;-67
2023/01/19 07:53:44;;;;;;;21.30;10.77;;;;;;;2.73;53.14;100129.19;4926786;28;97077;-67
2023/01/19 07:56:11;;;;;;;24.65;10.75;;;;;;;2.93;52.89;100124.56;4931557;28;99424;-68
2023/01/19 07:58:37;;;;;;;17.60;9.32;;;;;;;2.75;53.03;100128.28;4924794;28;98953;-67
2023/01/19 08:01:08;;;;;;;23.02;11.18;;;;;;;2.99;52.77;100129.69;4923694;28;96925;-68
2023/01/19 08:03:34;;;;;;;18.73;9.95;;;;;;;2.95;52.65;100128.00;4933360;28;96910;-67
2023/01/19 08:06:01;;;;;;;21.27;9.82;;;;;;;2.96;52.66;100124.50;4921565;28;98309;-67
2023/01/19 08:08:29;;;;;;;20.85;9.35;;;;;;;2.93;52.98;100131.53;4944999;28;98766;-68
2023/01/19 08:10:56;;;;;;;19.58;9.93;;;;;;;3.04;52.46;100127.00;4929609;28;96735;-69
2023/01/19 08:13:22;;;;;;;22.55;10.05;;;;;;;2.88;52.63;100130.72;4930021;28;97190;-70
2023/01/19 08:15:50;;;;;;;20.60;9.60;;;;;;;3.24;52.10;100124.09;4926488;28;102432;-69
2023/01/19 08:18:19;;;;;;;21.65;9.25;;;;;;;3.04;52.17;100133.09;4937859;28;97577;-71
2023/01/19 08:20:45;;;;;;;20.63;8.77;;;;;;;2.94;52.49;100130.63;4935580;28;96700;-70
2023/01/19 08:23:12;;;;;;;15.27;8.50;;;;;;;2.75;52.96;100132.66;4931723;28;97146;-70
2023/01/19 08:25:41;;;;;;;16.00;9.05;;;;;;;2.80;52.95;100128.22;4940524;28;99993;-71
2023/01/19 08:28:09;;;;;;;18.20;8.23;;;;;;;3.22;52.11;100137.16;4934316;28;97746;-70
2023/01/19 08:30:35;;;;;;;15.80;8.27;;;;;;;3.33;51.68;100139.63;4943783;28;96826;-69
2023/01/19 08:33:06;;;;;;;17.02;8.30;;;;;;;3.30;51.42;100140.53;4936395;28;97518;-70
2023/01/19 08:35:37;;;;;;;16.02;7.75;;;;;;;3.29;51.63;100138.78;4933786;28;97850;-70
2023/01/19 08:38:04;;;;;;;19.90;9.30;;;;;;;3.30;51.72;100142.25;4929496;28;98807;-70
2023/01/19 08:40:33;;;;;;;16.80;7.57;;;;;;;3.44;51.40;100145.53;4927917;28;97158;-70
2023/01/19 08:43:06;;;;;;;16.65;8.43;;;;;;;3.52;51.18;100147.13;4925078;28;97174;-70
2023/01/19 08:45:32;;;;;;;19.20;8.15;;;;;;;3.59;50.69;100150.50;4927497;28;98955;-70
2023/01/19 08:47:59;;;;;;;19.00;9.10;;;;;;;3.76;50.55;100140.63;4925902;28;99762;-69
2023/01/19 08:50:26;;;;;;;16.58;7.50;;;;;;;3.52;50.71;100148.88;4929526;28;96767;-69
2023/01/19 08:52:56;;;;;;;19.08;8.93;;;;;;;3.43;50.97;100142.06;4937686;28;96867;-70
2023/01/19 08:55:22;;;;;;;15.75;8.05;;;;;;;3.48;51.21;100145.44;4934416;28;97570;-70
2023/01/19 08:57:51;;;;;;;22.33;9.10;;;;;;;3.60;50.66;100153.09;4928935;28;100578;-69
2023/01/19 09:00:18;;;;;;;17.77;8.40;;;;;;;3.77;50.81;100147.56;4931909;28;96905;-70
2023/01/19 09:02:45;;;;;;;16.85;8.20;;;;;;;3.73;50.11;100145.06;4929083;28;97415;-70
2023/01/19 09:05:11;;;;;;;17.27;9.25;;;;;;;3.80;50.21;100147.53;4929866;28;98938;-71
2023/01/19 09:07:38;;;;;;;18.38;7.07;;;;;;;3.67;50.68;100151.25;4926600;28;99329;-72
2023/01/19 09:10:07;;;;;;;17.88;7.55;;;;;;;3.58;50.96;100157.47;4934901;28;97003;-70
2023/01/19 09:12:33;;;;;;;15.50;7.30;;;;;;;4.02;49.73;100148.00;4933446;28;97225;-70
2023/01/19 09:14:59;;;;;;;16.42;7.47;;;;;;;3.82;50.06;100150.09;4929131;28;98995;-70
2023/01/19 09:17:26;;;;;;;11.98;7.13;;;;;;;3.75;50.51;100153.72;4935277;28;99054;-70
2023/01/19 09:19:52;;;;;;;17.80;8.25;;;;;;;3.85;50.35;100157.91;4935937;28;96873;-69
2023/01/19 09:22:20;;;;;;;18.08;7.95;;;;;;;3.95;50.75;100169.91;4932363;28;97390;-70
2023/01/19 09:24:49;;;;;;;16.83;7.70;;;;;;;4.13;49.93;100167.00;4925967;28;98016;-71
2023/01/19 09:27:17;;;;;;;18.70;7.22;;;;;;;3.94;49.89;100170.78;4936372;28;98126;-70
2023/01/19 09:29:51;;;;;;;18.83;7.90;;;;;;;3.89;50.20;100167.41;4940978;28;97878;-70
2023/01/19 09:32:18;;;;;;;17.27;8.27;;;;;;;3.90;50.41;100171.75;4936500;28;97206;-70
2023/01/19 09:34:44;;;;;;;12.52;6.60;;;;;;;4.14;49.82;100173.06;4933096;28;98972;-72
2023/01/19 09:37:10;;;;;;;16.92;9.48;;;;;;;4.10;50.30;100169.66;4926035;28;98719;-70
2023/01/19 09:39:37;;;;;;;12.55;7.13;;;;;;;3.81;51.13;100175.38;4928252;28;96822;-70
2023/01/19 09:42:14;;;;;;;16.33;7.22;;;;;;;4.16;50.29;100166.91;4930711;28;97005;-70
2023/01/19 09:44:44;;;;;;;20.85;6.88;;;;;;;4.57;49.67;100162.63;4934952;28;100139;-71
2023/01/19 09:47:15;;;;;;;14.57;6.85;;;;;;;4.47;49.68;100156.72;4934234;28;98932;-69
2023/01/19 09:49:45;;;;;;;12.02;6.60;;;;;;;4.65;49.40;100155.50;4934797;28;97806;-70
2023/01/19 09:52:13;;;;;;;18.73;7.03;;;;;;;4.40;49.86;100155.09;4926739;28;98179;-70
2023/01/19 09:54:43;;;;;;;13.27;6.72;;;;;;;4.16;50.10;100155.59;4927486;28;98946;-70
2023/01/19 09:57:11;;;;;;;16.27;7.55;;;;;;;4.40;49.69;100155.09;4930758;28;99319;-69
2023/01/19 09:59:38;;;;;;;12.45;6.70;;;;;;;4.50;49.75;100156.66;4932045;28;96894;-71
2023/01/19 10:02:22;;;;;;;11.65;6.55;;;;;;;4.79;49.06;100154.28;4935044;28;97035;-71
2023/01/19 10:04:59;;;;;;;11.85;6.45;;;;;;;4.73;49.36;100159.66;4931130;28;99416;-70
2023/01/19 10:07:36;;;;;;;17.15;6.75;;;;;;;5.04;48.78;100165.13;4935221;28;97710;-72
2023/01/19 10:10:12;;;;;;;11.52;6.22;;;;;;;5.20;48.40;100158.63;4929953;28;97252;-70
2023/01/19 10:12:55;;;;;;;16.23;7.25;;;;;;;5.45;47.64;100153.66;4928072;28;98493;-70
2023/01/19 10:15:32;;;;;;;15.48;6.78;;;;;;;5.47;47.90;100146.63;4924744;28;99417;-70
2023/01/19 10:18:13;;;;;;;9.27;5.35;;;;;;;5.76;46.90;100147.69;4924027;28;99265;-70
2023/01/19 10:20:43;;;;;;;10.95;6.80;;;;;;;5.63;47.65;100151.50;4926481;28;98249;-71
2023/01/19 10:23:35;;;;;;;12.93;6.57;;;;;;;5.47;47.95;100145.78;4933339;28;98017;-70
2023/01/19 10:26:09;;;;;;;14.23;6.05;;;;;;;5.90;46.76;100135.97;4936805;28;102530;-71
2023/01/19 10:28:36;;;;;;;12.85;6.15;;;;;;;5.82;47.10;100142.28;4935321;28;99014;-70
2023/01/19 10:31:05;;;;;;;14.30;6.75;;;;;;;5.50;47.36;100146.56;4934828;28;96755;-70
2023/01/19 10:33:33;;;;;;;13.90;6.80;;;;;;;5.62;48.19;100153.25;4929717;28;97502;-70
2023/01/19 10:36:03;;;;;;;15.90;7.90;;;;;;;5.81;47.32;100148.41;4927953;28;99629;-70
2023/01/19 10:38:32;;;;;;;14.63;6.00;;;;;;;5.62;46.85;100153.25;4938611;28;99080;-71
2023/01/19 10:41:03;;;;;;;14.70;6.57;;;;;;;5.44;47.60;100138.88;4928897;28;96980;-71
2023/01/19 10:43:36;;;;;;;9.80;5.75;;;;;;;5.56;48.01;100137.69;4925664;28;97375;-70
2023/01/19 10:46:06;;;;;;;13.93;6.70;;;;;;;5.72;47.33;100136.41;4929066;28;97875;-70
2023/01/19 10:48:40;;;;;;;27.13;10.88;;;;;;;5.49;47.56;100141.38;4929226;28;98800;-70
2023/01/19 10:51:08;;;;;;;12.55;5.70;;;;;;;5.67;47.56;100133.03;4928488;28;97529;-70
2023/01/19 10:53:35;;;;;;;14.63;6.55;;;;;;;5.59;47.75;100132.34;4932609;28;97217;-70
2023/01/19 10:56:16;;;;;;;10.18;5.90;;;;;;;5.88;47.49;100131.66;4928041;28;99053;-72
2023/01/19 10:58:43;;;;;;;10.77;6.00;;;;;;;5.89;47.43;100130.75;4938964;28;97577;-70
2023/01/19 11:01:15;;;;;;;13.68;6.68;;;;;;;6.29;46.64;100128.81;4932608;28;97220;-71
2023/01/19 11:03:43;;;;;;;11.40;6.80;;;;;;;6.42;46.34;100125.81;4921235;28;97970;-70
2023/01/19 11:06:22;;;;;;;13.02;6.63;;;;;;;6.39;45.86;100119.75;4933591;28;99102;-70
2023/01/19 11:08:50;;;;;;;13.80;6.82;;;;;;;6.31;46.50;100123.47;4929628;28;100069;-72
2023/01/19 11:11:18;;;;;;;12.35;6.20;;;;;;;6.31;46.25;100120.84;4931937;28;97624;-72
2023/01/19 11:13:45;;;;;;;14.63;6.80;;;;;;;5.78;47.35;100127.50;4938891;28;97296;-71
2023/01/19 11:16:22;;;;;;;13.80;6.57;;;;;;;5.75;47.41;100117.13;4936108;28;98960;-71
2023/01/19 11:18:53;;;;;;;14.55;6.38;;;;;;;5.72;48.33;100122.41;4930856;28;98997;-71
2023/01/19 11:21:23;;;;;;;14.73;6.63;;;;;;;5.79;48.25;100113.50;4930167;28;97909;-70
2023/01/19 11:23:52;;;;;;;12.32;6.57;;;;;;;6.00;47.78;100116.47;4938248;28;96931;-71
2023/01/19 11:26:26;;;;;;;12.73;6.65;;;;;;;6.13;47.58;100113.50;4934287;28;98812;-71
2023/01/19 11:28:54;;;;;;;13.45;6.78;;;;;;;6.22;47.00;100113.25;4937617;28;98827;-71
2023/01/19 11:31:31;;;;;;;14.30;7.15;;;;;;;6.14;47.45;100112.59;4932417;28;96751;-71
2023/01/19 11:34:02;;;;;;;11.85;6.18;;;;;;;6.33;47.13;100119.06;4925541;28;97104;-71
2023/01/19 11:36:30;;;;;;;15.38;6.97;;;;;;;6.06;47.49;100104.06;4934021;28;101226;-71
2023/01/19 11:38:58;;;;;;;12.10;6.90;;;;;;;6.00;48.31;100100.72;4933361;28;97798;-70
2023/01/19 11:41:27;;;;;;;13.07;6.43;;;;;;;5.96;47.93;100112.22;4930289;28;98037;-70
2023/01/19 11:43:57;;;;;;;12.57;7.32;;;;;;;5.83;48.15;100097.69;4926088;28;97619;-70